createdAt,value
2022-09-29T00:01:36.654Z,6.30
2022-09-29T00:04:10.681Z,5.78
2022-09-29T00:06:44.621Z,5.63
2022-09-29T00:09:18.751Z,5.88
2022-09-29T00:12:00.138Z,5.70
2022-09-29T00:14:34.052Z,5.57
2022-09-29T00:17:08.059Z,6.18
2022-09-29T00:19:42.242Z,6.60
2022-09-29T00:22:16.256Z,5.72
2022-09-29T00:24:50.265Z,5.70
2022-09-29T00:27:29.446Z,6.35
2022-09-29T00:30:03.402Z,4.93
2022-09-29T00:32:37.332Z,5.30
2022-09-29T00:35:11.984Z,5.40
2022-09-29T00:37:46.015Z,5.32
2022-09-29T00:40:20.082Z,4.38
2022-09-29T00:42:59.286Z,4.82
2022-09-29T00:45:33.518Z,5.38
2022-09-29T00:48:14.574Z,5.28
2022-09-29T00:50:49.357Z,5.53
2022-09-29T00:53:23.277Z,5.55
2022-09-29T00:55:58.612Z,5.28
2022-09-29T01:01:14.814Z,6.18
2022-09-29T01:03:50.484Z,5.40
2022-09-29T01:06:26.195Z,6.43
2022-09-29T01:09:02.507Z,6.00
2022-09-29T01:11:36.770Z,5.63
2022-09-29T01:14:17.241Z,6.30
2022-09-29T01:16:51.269Z,6.50
2022-09-29T01:21:55.570Z,6.47
2022-09-29T01:46:04.388Z,5.18
2022-09-29T01:51:13.692Z,6.55
2022-09-29T01:56:23.668Z,6.07
2022-09-29T02:01:39.650Z,5.60
2022-09-29T02:04:15.874Z,5.32
2022-09-29T02:06:52.012Z,6.32
2022-09-29T02:09:27.851Z,6.22
2022-09-29T02:12:03.071Z,6.28
2022-09-29T03:00:17.783Z,5.72
2022-09-29T03:40:55.873Z,4.60
2022-09-29T03:43:31.052Z,4.80
2022-09-29T03:46:05.605Z,5.40
2022-09-29T03:51:13.804Z,5.07
2022-09-29T05:34:03.836Z,6.75
2022-09-29T05:36:37.772Z,6.15
2022-09-29T05:39:11.707Z,5.95
2022-09-29T05:41:45.693Z,6.50
2022-09-29T05:44:19.664Z,6.32
2022-09-29T05:46:53.687Z,6.63
2022-09-29T05:49:33.891Z,7.10
2022-09-29T05:52:08.318Z,6.57
2022-09-29T05:54:42.207Z,8.68
2022-09-29T05:57:16.225Z,10.15
2022-09-29T05:59:51.188Z,14.05
2022-09-29T06:02:25.667Z,16.90
2022-09-29T06:05:05.954Z,16.67
2022-09-29T06:07:39.977Z,14.05
2022-09-29T06:10:16.228Z,11.07
2022-09-29T06:12:50.167Z,9.75
2022-09-29T06:15:24.333Z,8.68
2022-09-29T06:18:02.285Z,7.78
2022-09-29T06:20:44.647Z,7.65
2022-09-29T06:23:18.439Z,6.68
2022-09-29T06:25:52.384Z,7.63
2022-09-29T06:28:26.313Z,7.47
2022-09-29T06:31:04.382Z,6.93
2022-09-29T06:33:38.899Z,6.65
2022-09-29T06:36:33.238Z,7.37
2022-09-29T06:39:07.163Z,7.43
2022-09-29T06:41:41.134Z,6.93
2022-09-29T06:44:17.226Z,7.00
2022-09-29T06:46:52.277Z,6.03
2022-09-29T06:52:01.180Z,7.25
2022-09-29T07:18:48.259Z,5.82
2022-09-29T07:21:23.068Z,5.72
2022-09-29T07:24:01.888Z,6.72
2022-09-29T07:26:36.080Z,5.85
2022-09-29T07:29:14.941Z,5.55
2022-09-29T07:31:53.918Z,6.20
2022-09-29T07:34:33.175Z,5.95
2022-09-29T07:37:07.140Z,6.18
2022-09-29T07:39:41.007Z,5.47
2022-09-29T07:42:16.226Z,5.88
2022-09-29T07:44:52.369Z,5.75
2022-09-29T07:47:26.474Z,5.28
2022-09-29T07:50:05.678Z,5.60
2022-09-29T07:52:39.655Z,5.40
2022-09-29T07:55:14.202Z,5.38
2022-09-29T07:57:48.242Z,4.68
2022-09-29T08:08:56.160Z,5.35
2022-09-29T08:11:33.006Z,5.15
2022-09-29T08:24:41.282Z,4.85
2022-09-29T08:32:37.633Z,3.92
2022-09-29T08:37:35.287Z,4.22
2022-09-29T08:48:22.933Z,4.13
2022-09-29T08:50:52.645Z,3.90
2022-09-29T09:03:45.614Z,4.18
2022-09-29T09:06:17.688Z,3.97
2022-09-29T09:13:50.589Z,3.53
2022-09-29T09:16:22.787Z,3.05
2022-09-29T09:21:22.032Z,3.47
2022-09-29T09:26:32.104Z,3.60
2022-09-29T09:31:32.077Z,3.72
2022-09-29T09:36:34.012Z,4.07
2022-09-29T09:41:35.898Z,3.55
2022-09-29T09:46:35.703Z,3.75
2022-09-29T09:51:39.630Z,3.67
2022-09-29T09:57:06.993Z,3.90
2022-09-29T10:02:06.597Z,3.22
2022-09-29T10:04:45.769Z,3.20
2022-09-29T10:12:40.385Z,2.60
2022-09-29T10:15:22.185Z,2.60
2022-09-29T10:17:57.619Z,2.80
2022-09-29T10:22:59.591Z,2.33
2022-09-29T10:28:02.598Z,2.25
2022-09-29T10:33:05.920Z,1.88
2022-09-29T10:41:11.170Z,2.15
2022-09-29T10:46:43.407Z,2.10
2022-09-29T10:49:19.842Z,2.20
2022-09-29T10:52:03.244Z,2.50
2022-09-29T10:54:38.732Z,2.30
2022-09-29T10:57:31.458Z,2.10
2022-09-29T11:00:06.436Z,2.60
2022-09-29T11:02:42.083Z,2.03
2022-09-29T11:05:24.605Z,2.05
2022-09-29T11:07:59.235Z,1.80
2022-09-29T11:10:37.100Z,2.38
2022-09-29T11:13:45.560Z,1.98
2022-09-29T11:16:21.960Z,1.60
2022-09-29T11:23:57.662Z,1.80
2022-09-29T11:26:40.796Z,1.95
2022-09-29T11:31:44.773Z,2.55
2022-09-29T11:36:50.026Z,1.85
2022-09-29T11:45:00.831Z,1.60
2022-09-29T11:50:08.709Z,1.50
2022-09-29T11:52:41.260Z,1.42
2022-09-29T11:55:12.897Z,1.23
2022-09-29T12:00:13.844Z,1.63
2022-09-29T12:05:16.925Z,1.20
2022-09-29T12:12:45.913Z,1.77
2022-09-29T12:17:42.837Z,1.67
2022-09-29T12:22:44.782Z,2.20
2022-09-29T12:27:52.848Z,1.73
2022-09-29T12:33:13.516Z,1.60
2022-09-29T12:35:49.455Z,1.48
2022-09-29T12:38:25.023Z,2.25
2022-09-29T12:41:06.389Z,1.55
2022-09-29T12:43:42.077Z,1.77
2022-09-29T12:46:20.112Z,1.23
2022-09-29T12:49:04.929Z,1.30
2022-09-29T12:51:41.563Z,1.38
2022-09-29T12:54:19.473Z,1.20
2022-09-29T12:56:57.609Z,1.15
2022-09-29T12:59:39.614Z,1.33
2022-09-29T13:02:23.048Z,1.10
2022-09-29T13:05:10.815Z,1.70
2022-09-29T13:08:09.602Z,1.55
2022-09-29T13:11:05.996Z,2.00
2022-09-29T13:13:51.054Z,1.77
2022-09-29T13:16:25.653Z,1.67
2022-09-29T13:24:14.973Z,1.98
2022-09-29T13:26:47.021Z,2.30
2022-09-29T13:34:38.039Z,2.50
2022-09-29T13:42:33.961Z,2.25
2022-09-29T13:50:27.312Z,2.72
2022-09-29T13:58:35.542Z,1.90
2022-09-29T14:01:10.988Z,1.55
2022-09-29T14:03:46.316Z,1.73
2022-09-29T14:09:20.615Z,1.60
2022-09-29T14:11:52.127Z,1.95
2022-09-29T14:24:38.126Z,1.80
2022-09-29T14:27:08.511Z,1.77
2022-09-29T14:32:09.175Z,2.47
2022-09-29T14:34:48.578Z,2.20
2022-09-29T14:42:35.836Z,1.77
2022-09-29T14:45:23.937Z,1.70
2022-09-29T14:48:18.776Z,1.77
2022-09-29T14:51:13.083Z,1.83
2022-09-29T14:53:57.613Z,1.88
2022-09-29T14:56:56.053Z,1.63
2022-09-29T14:59:39.004Z,2.13
2022-09-29T15:02:26.064Z,2.25
2022-09-29T15:05:00.057Z,2.30
2022-09-29T15:07:40.171Z,1.75
2022-09-29T15:10:26.068Z,1.50
2022-09-29T15:13:00.131Z,1.50
2022-09-29T15:15:39.331Z,1.30
2022-09-29T15:18:20.705Z,2.05
2022-09-29T15:21:01.530Z,1.60
2022-09-29T15:24:01.903Z,1.33
2022-09-29T15:35:01.363Z,1.60
2022-09-29T15:42:36.325Z,1.48
2022-09-29T15:53:33.892Z,1.65
2022-09-29T15:56:08.116Z,1.55
2022-09-29T15:58:43.804Z,1.70
2022-09-29T16:01:20.181Z,1.50
2022-09-29T16:03:58.644Z,1.30
2022-09-29T16:06:34.983Z,1.60
2022-09-29T16:09:20.678Z,1.52
2022-09-29T16:14:32.158Z,1.40
2022-09-29T16:17:06.048Z,1.60
2022-09-29T16:19:40.141Z,1.58
2022-09-29T16:22:14.163Z,2.53
2022-09-29T16:24:58.673Z,1.83
2022-09-29T16:27:47.721Z,2.22
2022-09-29T16:30:32.689Z,2.03
2022-09-29T16:35:33.432Z,1.95
2022-09-29T16:40:44.962Z,1.90
2022-09-29T16:45:44.492Z,1.88
2022-09-29T16:53:33.547Z,2.08
2022-09-29T16:58:53.517Z,2.47
2022-09-29T17:11:59.522Z,2.03
2022-09-29T17:14:31.544Z,1.95
2022-09-29T17:17:10.792Z,1.98
2022-09-29T17:24:55.901Z,2.40
2022-09-29T17:27:52.309Z,2.28
2022-09-29T17:33:00.634Z,2.30
2022-09-29T17:35:28.631Z,2.35
2022-09-29T17:40:30.498Z,2.67
2022-09-29T17:45:36.655Z,2.95
2022-09-29T17:48:16.297Z,2.60
2022-09-29T17:50:53.704Z,2.47
2022-09-29T17:53:27.721Z,2.80
2022-09-29T17:56:04.333Z,2.80
2022-09-29T17:58:38.155Z,2.42
2022-09-29T18:03:40.161Z,2.80
2022-09-29T18:11:26.573Z,2.35
2022-09-29T18:27:28.824Z,2.78
2022-09-29T18:30:00.557Z,2.88
2022-09-29T18:45:34.686Z,4.93
2022-09-29T18:48:04.628Z,4.03
2022-09-29T18:55:57.052Z,3.40
2022-09-29T18:58:31.356Z,2.88
2022-09-29T19:01:05.390Z,3.10
2022-09-29T19:03:41.654Z,3.15
2022-09-29T19:06:16.700Z,3.58
2022-09-29T19:08:53.217Z,3.50
2022-09-29T19:11:34.683Z,4.18
2022-09-29T19:14:09.624Z,4.85
2022-09-29T19:16:43.559Z,7.03
2022-09-29T19:19:17.585Z,6.00
2022-09-29T19:22:15.952Z,5.70
2022-09-29T19:24:49.871Z,4.97
2022-09-29T19:27:29.174Z,4.35
2022-09-29T19:30:05.030Z,5.18
2022-09-29T19:32:39.102Z,4.70
2022-09-29T19:35:18.411Z,4.85
2022-09-29T19:37:52.678Z,4.32
2022-09-29T19:40:28.121Z,4.55
2022-09-29T19:45:43.468Z,4.65
2022-09-29T19:48:20.236Z,5.38
2022-09-29T19:51:07.624Z,6.25
2022-09-29T19:53:44.472Z,6.10
2022-09-29T19:56:21.523Z,6.28
2022-09-29T19:59:01.024Z,5.88
2022-09-29T20:01:35.128Z,6.35
2022-09-29T20:04:09.294Z,7.53
2022-09-29T20:06:43.380Z,8.35
2022-09-29T20:09:17.673Z,6.82
2022-09-29T20:11:52.532Z,7.03
2022-09-29T20:14:39.018Z,5.30
2022-09-29T20:17:12.952Z,6.53
2022-09-29T20:19:48.829Z,4.70
2022-09-29T20:22:26.991Z,3.90
2022-09-29T20:25:00.921Z,4.43
2022-09-29T20:27:34.735Z,4.00
2022-09-29T20:30:15.306Z,4.53
2022-09-29T20:32:49.236Z,4.18
2022-09-29T20:35:23.273Z,5.13
2022-09-29T20:37:57.255Z,4.53
2022-09-29T20:40:31.392Z,4.55
2022-09-29T20:43:05.559Z,4.28
2022-09-29T20:45:44.813Z,4.00
2022-09-29T20:48:18.912Z,3.80
2022-09-29T20:50:52.743Z,3.95
2022-09-29T20:53:27.140Z,3.78
2022-09-29T20:56:07.934Z,3.47
2022-09-29T20:58:43.165Z,3.70
2022-09-29T21:01:24.002Z,3.28
2022-09-29T21:03:59.074Z,3.47
2022-09-29T21:06:34.418Z,3.88
2022-09-29T21:11:44.634Z,3.40
2022-09-29T21:14:19.527Z,4.03
2022-09-29T21:16:59.292Z,3.65
2022-09-29T21:19:33.481Z,3.65
2022-09-29T21:22:07.298Z,3.38
2022-09-29T21:24:42.560Z,3.55
2022-09-29T21:27:16.530Z,4.00
2022-09-29T21:29:50.561Z,4.00
2022-09-29T21:32:30.099Z,3.60
2022-09-29T21:35:04.205Z,3.97
2022-09-29T21:37:38.080Z,3.53
2022-09-29T21:40:12.848Z,4.47
2022-09-29T21:42:46.813Z,4.35
2022-09-29T21:45:20.893Z,4.50
2022-09-29T21:48:14.977Z,3.88
2022-09-29T21:50:48.814Z,4.43
2022-09-29T21:53:22.843Z,4.15
2022-09-29T21:55:56.734Z,3.88
2022-09-29T21:58:30.577Z,3.72
2022-09-29T22:01:09.101Z,3.72
2022-09-29T22:03:51.258Z,3.45
2022-09-29T22:06:26.426Z,4.05
2022-09-29T22:09:00.679Z,3.72
2022-09-29T22:11:39.245Z,3.90
2022-09-29T22:14:15.113Z,4.30
2022-09-29T22:16:49.355Z,3.90
2022-09-29T22:19:28.762Z,3.40
2022-09-29T22:22:02.702Z,4.15
2022-09-29T22:24:36.879Z,3.13
2022-09-29T22:27:11.267Z,3.25
2022-09-29T22:29:45.158Z,3.15
2022-09-29T22:32:19.139Z,3.10
2022-09-29T22:34:58.998Z,2.92
2022-09-29T22:37:32.944Z,3.30
2022-09-29T22:40:12.423Z,3.47
2022-09-29T22:42:46.466Z,3.17
2022-09-29T22:45:20.439Z,3.30
2022-09-29T22:47:55.810Z,3.22
2022-09-29T22:53:10.241Z,3.08
2022-09-29T22:55:44.222Z,3.35
2022-09-29T22:58:18.328Z,3.08
2022-09-29T23:00:52.341Z,3.38
2022-09-29T23:03:26.324Z,3.33
2022-09-29T23:06:09.175Z,3.00
2022-09-29T23:08:43.345Z,3.50
2022-09-29T23:11:21.440Z,3.20
2022-09-29T23:13:55.450Z,3.08
2022-09-29T23:16:32.731Z,2.47
2022-09-29T23:19:06.649Z,2.58
2022-09-29T23:21:45.822Z,2.92
2022-09-29T23:24:21.517Z,3.17
2022-09-29T23:26:55.398Z,3.33
2022-09-29T23:29:29.258Z,3.08
2022-09-29T23:32:03.200Z,3.40
2022-09-29T23:34:37.116Z,3.70
2022-09-29T23:37:16.357Z,2.75
2022-09-29T23:39:44.957Z,3.28
2022-09-29T23:42:18.859Z,2.90
2022-09-29T23:44:53.037Z,3.17
2022-09-29T23:47:27.072Z,3.58
2022-09-29T23:50:00.903Z,3.60
2022-09-29T23:52:40.538Z,2.90
2022-09-29T23:55:14.727Z,2.47
2022-09-29T23:57:48.656Z,2.80
